Terminal Aerodrome Forecast
Issued by NWS Brownsville, TX

Home | Current Version | Previous Version | Text Only | Print | Product List | Glossary On
Versions: 1 2 3 4 5 6 7 8 9 10 11 12 13 14
068
FTUS44 KBRO 052335
TAFHRL
TAF
KHRL 052335Z 0600/0624 13010KT P6SM FEW250
     FM060200 VRB05KT P6SM BKN250
      TEMPO 0610/0613 5SM BR
     FM061500 15009KT P6SM SCT250=

USA.gov is the U.S. government's official web portal to all federal, state and local government web resources and services.